Time;durP1;ratioP1;P1;durP2;ratioP2;P2;SDS_P1;SDS_P2;PMS_P1;PMS_P2;Temp;Humidity;BMP_temperature;BMP_pressure;BME280_temperature;BME280_humidity;BME280_pressure;Samples;Min_cycle;Max_cycle;Signal;HPM_P1;HPM_P2
2023/08/25 00:02:08;;;;;;;;;;;;;;;24.71;71.53;96967.05;626964;226;64853;-67
2023/08/25 00:04:36;;;;;;;;;;;;;;;24.71;71.57;96967.05;627137;226;65425;-67
2023/08/25 00:07:04;;;;;;;;;;;;;;;24.70;71.60;96968.15;625624;226;62828;-67
2023/08/25 00:09:31;;;;;;;;;;;;;;;24.71;71.55;96969.73;626696;226;62748;-67
2023/08/25 00:11:59;;;;;;;;;;;;;;;24.69;71.57;96975.42;626422;226;63253;-67
2023/08/25 00:14:26;;;;;;;;;;;;;;;24.70;71.54;96976.22;626245;226;63670;-67
2023/08/25 00:16:54;;;;;;;;;;;;;;;24.70;71.52;96973.52;627178;226;62787;-67
2023/08/25 00:19:21;;;;;;;;;;;;;;;24.70;71.44;96970.84;627048;226;65006;-67
2023/08/25 00:21:49;;;;;;;;;;;;;;;24.70;71.44;96973.52;625520;226;64979;-67
2023/08/25 00:24:16;;;;;;;;;;;;;;;24.70;71.44;96968.15;626816;226;63619;-67
2023/08/25 00:26:44;;;;;;;;;;;;;;;24.69;71.40;96969.23;627393;226;65429;-67
2023/08/25 00:29:11;;;;;;;;;;;;;;;24.69;71.47;96971.91;626871;226;62674;-67
2023/08/25 00:31:39;;;;;;;;;;;;;;;24.69;71.46;96969.23;626364;226;65223;-67
2023/08/25 00:34:07;;;;;;;;;;;;;;;24.69;71.41;96975.42;626444;226;65272;-67
2023/08/25 00:36:35;;;;;;;;;;;;;;;24.68;71.45;96973.81;626666;226;62572;-67
2023/08/25 00:39:02;;;;;;;;;;;;;;;24.68;71.38;96983.77;625721;226;62649;-67
2023/08/25 00:41:30;;;;;;;;;;;;;;;24.68;71.50;96983.77;627095;226;65271;-67
2023/08/25 00:43:58;;;;;;;;;;;;;;;24.68;71.45;96983.77;627046;226;66096;-67
2023/08/25 00:46:26;;;;;;;;;;;;;;;24.68;71.44;96984.55;626889;226;65127;-67
2023/08/25 00:48:53;;;;;;;;;;;;;;;24.68;71.33;96986.45;626802;226;62936;-67
2023/08/25 00:51:24;;;;;;;;;;;;;;;24.67;71.45;96982.97;626043;226;65728;-66
2023/08/25 00:53:52;;;;;;;;;;;;;;;24.67;71.26;96984.88;626939;226;62739;-67
2023/08/25 00:56:20;;;;;;;;;;;;;;;24.67;71.34;96980.28;626734;226;63398;-67
2023/08/25 00:58:49;;;;;;;;;;;;;;;24.67;71.43;96971.44;626885;226;65984;-67
2023/08/25 01:01:18;;;;;;;;;;;;;;;24.67;71.42;96969.53;626606;226;65753;-67
2023/08/25 01:03:48;;;;;;;;;;;;;;;24.67;71.38;96966.06;627264;226;65542;-67
2023/08/25 01:06:15;;;;;;;;;;;;;;;24.66;71.20;96961.77;626679;226;64796;-67
2023/08/25 01:08:43;;;;;;;;;;;;;;;24.66;71.31;96961.77;626893;226;64953;-67
2023/08/25 01:11:18;;;;;;;;;;;;;;;24.65;71.37;96963.66;626812;226;65405;-67
2023/08/25 01:13:51;;;;;;;;;;;;;;;24.66;71.39;96964.45;627675;225;65622;-66
2023/08/25 01:16:20;;;;;;;;;;;;;;;24.65;71.36;96974.41;626759;225;65005;-67
2023/08/25 01:18:48;;;;;;;;;;;;;;;24.65;71.31;96974.41;626408;226;65453;-67
2023/08/25 01:21:16;;;;;;;;;;;;;;;24.66;71.33;96975.20;627337;226;63782;-67
2023/08/25 01:23:48;;;;;;;;;;;;;;;24.65;71.29;96982.46;626366;226;65059;-67
2023/08/25 01:26:16;;;;;;;;;;;;;;;24.65;71.33;96984.36;626138;225;63186;-67
2023/08/25 01:28:45;;;;;;;;;;;;;;;24.65;71.29;96987.84;626911;226;63148;-67
2023/08/25 01:31:13;;;;;;;;;;;;;;;24.64;71.21;96988.94;625755;225;65214;-67
2023/08/25 01:33:45;;;;;;;;;;;;;;;24.65;71.31;96989.73;626901;226;65695;-67
2023/08/25 01:36:23;;;;;;;;;;;;;;;24.64;71.25;96985.46;626511;225;62927;-67
2023/08/25 01:39:10;;;;;;;;;;;;;;;24.64;71.32;96993.52;626843;225;65781;-67
2023/08/25 01:41:45;;;;;;;;;;;;;;;24.64;71.29;96990.84;626386;226;63147;-67
2023/08/25 01:44:15;;;;;;;;;;;;;;;24.63;71.23;96990.02;626985;226;65373;-67
2023/08/25 01:46:44;;;;;;;;;;;;;;;24.63;71.25;96987.33;626606;226;65090;-67
2023/08/25 01:49:14;;;;;;;;;;;;;;;24.63;71.26;96992.70;627197;226;64080;-67
2023/08/25 01:51:42;;;;;;;;;;;;;;;24.63;71.29;96991.91;627401;226;65169;-66
2023/08/25 01:54:10;;;;;;;;;;;;;;;24.62;71.25;96993.81;625762;226;62628;-66
2023/08/25 01:56:37;;;;;;;;;;;;;;;24.62;71.23;96993.02;625875;226;65669;-63
2023/08/25 01:59:05;;;;;;;;;;;;;;;24.62;71.27;96993.02;627526;226;62721;-63
2023/08/25 02:01:33;;;;;;;;;;;;;;;24.62;71.26;96990.33;627335;226;65149;-63
2023/08/25 02:04:00;;;;;;;;;;;;;;;24.62;71.13;96988.44;626326;226;63178;-63
2023/08/25 02:06:28;;;;;;;;;;;;;;;24.62;71.29;96988.44;625893;226;65684;-63
2023/08/25 02:08:56;;;;;;;;;;;;;;;24.61;71.23;96989.53;625529;226;65191;-63
2023/08/25 02:11:23;;;;;;;;;;;;;;;24.62;71.21;96987.64;625921;226;63998;-63
2023/08/25 02:13:51;;;;;;;;;;;;;;;24.62;71.08;96990.33;627555;226;62928;-63
2023/08/25 02:16:19;;;;;;;;;;;;;;;24.61;70.94;96997.59;625740;226;64952;-63
2023/08/25 02:18:47;;;;;;;;;;;;;;;24.61;71.00;96992.22;625919;226;63009;-63
2023/08/25 02:21:15;;;;;;;;;;;;;;;24.61;71.02;96994.91;626382;226;65186;-63
2023/08/25 02:23:44;;;;;;;;;;;;;;;24.61;70.90;96999.46;625753;226;65936;-63
2023/08/25 02:26:11;;;;;;;;;;;;;;;24.61;70.90;97004.84;626395;226;65536;-64
2023/08/25 02:28:40;;;;;;;;;;;;;;;24.61;70.99;96999.46;626095;226;66458;-63
2023/08/25 02:31:08;;;;;;;;;;;;;;;24.59;70.91;96992.50;626040;226;62650;-64
2023/08/25 02:33:35;;;;;;;;;;;;;;;24.59;70.87;96997.87;626634;226;64048;-63
2023/08/25 02:36:03;;;;;;;;;;;;;;;24.61;70.95;96991.41;626878;226;65261;-63
2023/08/25 02:38:31;;;;;;;;;;;;;;;24.60;70.86;96990.61;626856;226;62665;-66
2023/08/25 02:40:59;;;;;;;;;;;;;;;24.60;70.86;96982.55;627373;226;65387;-65
2023/08/25 02:43:26;;;;;;;;;;;;;;;24.58;70.78;96980.17;627141;226;64901;-66
2023/08/25 02:45:55;;;;;;;;;;;;;;;24.60;70.79;96982.55;625998;226;62728;-66
2023/08/25 02:48:22;;;;;;;;;;;;;;;24.59;70.86;96989.03;625852;226;65067;-66
2023/08/25 02:50:50;;;;;;;;;;;;;;;24.59;70.85;96983.66;627731;226;63077;-66
2023/08/25 02:53:17;;;;;;;;;;;;;;;24.59;70.80;96987.13;626122;226;62646;-66
2023/08/25 02:55:46;;;;;;;;;;;;;;;24.59;70.90;96984.44;626894;226;65767;-66
2023/08/25 02:58:14;;;;;;;;;;;;;;;24.58;70.96;96985.55;625574;226;65197;-68
2023/08/25 03:00:42;;;;;;;;;;;;;;;24.57;70.79;96991.99;625912;226;63808;-67
2023/08/25 03:03:09;;;;;;;;;;;;;;;24.58;70.69;96993.61;627257;226;63313;-67
2023/08/25 03:05:38;;;;;;;;;;;;;;;24.57;70.75;96983.94;626425;226;62973;-67
2023/08/25 03:08:11;;;;;;;;;;;;;;;24.58;70.78;96985.55;627975;226;65031;-67
2023/08/25 03:10:36;;;;;;;;;;;;;;;24.58;70.77;96987.41;626835;225;65486;-67
2023/08/25 03:13:04;;;;;;;;;;;;;;;24.57;70.87;96989.31;625725;226;62679;-67
2023/08/25 03:15:31;;;;;;;;;;;;;;;24.57;70.83;96994.68;625541;226;64792;-67
2023/08/25 03:17:59;;;;;;;;;;;;;;;24.57;70.82;96989.31;625624;226;63353;-67
2023/08/25 03:20:27;;;;;;;;;;;;;;;24.56;70.70;96987.72;625949;226;63147;-64
2023/08/25 03:22:57;;;;;;;;;;;;;;;24.56;70.59;96982.35;625397;226;64799;-64
2023/08/25 03:25:24;;;;;;;;;;;;;;;24.56;70.62;96982.35;624776;226;65275;-64
2023/08/25 03:27:52;;;;;;;;;;;;;;;24.57;70.69;96980.45;622423;226;63132;-64
2023/08/25 03:30:20;;;;;;;;;;;;;;;24.56;70.69;96976.98;628029;226;62715;-64
2023/08/25 03:32:48;;;;;;;;;;;;;;;24.56;70.70;96978.88;626876;224;66056;-64
2023/08/25 03:35:16;;;;;;;;;;;;;;;24.55;70.67;96975.39;626220;226;62560;-64
2023/08/25 03:37:43;;;;;;;;;;;;;;;24.55;70.78;96972.70;625772;226;65074;-64
2023/08/25 03:40:12;;;;;;;;;;;;;;;24.55;70.68;96970.02;626726;226;66038;-64
2023/08/25 03:42:39;;;;;;;;;;;;;;;24.55;70.68;96977.26;626587;226;65444;-64
2023/08/25 03:45:08;;;;;;;;;;;;;;;24.54;70.60;96979.16;627436;226;63021;-64
2023/08/25 03:47:35;;;;;;;;;;;;;;;24.54;70.62;96978.36;627321;226;65581;-64
2023/08/25 03:50:03;;;;;;;;;;;;;;;24.54;70.64;96986.42;626272;226;62720;-64
2023/08/25 03:52:31;;;;;;;;;;;;;;;24.54;70.56;96978.36;626874;226;65055;-64
2023/08/25 03:54:58;;;;;;;;;;;;;;;24.54;70.55;96981.84;626337;226;63179;-65
2023/08/25 03:57:26;;;;;;;;;;;;;;;24.54;70.57;96987.21;625993;226;65157;-64
2023/08/25 03:59:54;;;;;;;;;;;;;;;24.54;70.55;96981.84;626899;226;65911;-65
2023/08/25 04:02:22;;;;;;;;;;;;;;;24.54;70.50;96981.05;627052;226;65063;-64
2023/08/25 04:04:51;;;;;;;;;;;;;;;24.54;70.37;96978.36;626805;226;65518;-64
2023/08/25 04:07:19;;;;;;;;;;;;;;;24.54;70.43;96978.36;625548;226;65244;-64
2023/08/25 04:09:47;;;;;;;;;;;;;;;24.53;70.44;96971.41;626825;226;65799;-64
2023/08/25 04:12:15;;;;;;;;;;;;;;;24.54;70.52;96981.05;626876;226;66166;-64
2023/08/25 04:14:43;;;;;;;;;;;;;;;24.53;70.48;96972.20;627056;226;65194;-67
2023/08/25 04:17:11;;;;;;;;;;;;;;;24.53;70.46;96971.41;627325;226;62794;-67
2023/08/25 04:19:39;;;;;;;;;;;;;;;24.52;70.40;96978.64;627258;226;62905;-67
2023/08/25 04:22:07;;;;;;;;;;;;;;;24.52;70.44;96986.70;626639;226;66200;-67
2023/08/25 04:24:34;;;;;;;;;;;;;;;24.53;70.38;96995.59;626969;226;65346;-67
2023/08/25 04:27:02;;;;;;;;;;;;;;;24.52;70.33;97000.13;626352;226;62609;-67
2023/08/25 04:29:30;;;;;;;;;;;;;;;24.51;70.30;96993.18;627096;225;66029;-67
2023/08/25 04:31:58;;;;;;;;;;;;;;;24.52;70.28;96999.34;626316;226;65814;-67
2023/08/25 04:34:36;;;;;;;;;;;;;;;24.52;70.26;96996.66;626920;225;42328;-66
2023/08/25 04:37:04;;;;;;;;;;;;;;;24.52;70.34;96994.77;626620;226;63006;-66
2023/08/25 04:39:31;;;;;;;;;;;;;;;24.51;70.30;97001.23;626685;226;65863;-66
2023/08/25 04:41:59;;;;;;;;;;;;;;;24.52;70.29;96996.66;625858;226;65034;-66
2023/08/25 04:44:26;;;;;;;;;;;;;;;24.51;70.22;96992.39;625918;226;64972;-66
2023/08/25 04:46:54;;;;;;;;;;;;;;;24.51;70.19;96995.86;626873;226;63007;-66
2023/08/25 04:49:22;;;;;;;;;;;;;;;24.51;70.26;96995.86;627188;226;65281;-66
2023/08/25 04:51:50;;;;;;;;;;;;;;;24.50;70.33;96999.66;626114;224;62709;-66
2023/08/25 04:54:17;;;;;;;;;;;;;;;24.51;70.39;96995.86;626358;226;65345;-66
2023/08/25 04:56:47;;;;;;;;;;;;;;;24.51;70.35;96992.39;625531;225;42783;-66
2023/08/25 04:59:14;;;;;;;;;;;;;;;24.51;70.27;96987.02;626462;226;62889;-66
2023/08/25 05:01:42;;;;;;;;;;;;;;;24.51;70.39;96997.76;626948;226;65579;-66
2023/08/25 05:04:11;;;;;;;;;;;;;;;24.51;70.34;96995.86;627328;226;65795;-66
2023/08/25 05:06:39;;;;;;;;;;;;;;;24.51;70.34;97005.81;625732;223;65747;-67
2023/08/25 05:09:07;;;;;;;;;;;;;;;24.51;70.29;97006.61;626260;226;65582;-67
2023/08/25 05:11:35;;;;;;;;;;;;;;;24.51;70.43;97006.61;625906;226;66133;-67
2023/08/25 05:14:03;;;;;;;;;;;;;;;24.51;70.50;97003.92;627328;226;65765;-67
2023/08/25 05:16:30;;;;;;;;;;;;;;;24.51;70.39;97006.61;626376;226;65772;-67
2023/08/25 05:19:00;;;;;;;;;;;;;;;24.50;70.39;97006.89;627078;226;42557;-67
2023/08/25 05:21:27;;;;;;;;;;;;;;;24.50;70.69;97013.09;626359;226;63080;-67
2023/08/25 05:23:57;;;;;;;;;;;;;;;24.51;70.65;97028.10;626883;226;66281;-67
2023/08/25 05:26:24;;;;;;;;;;;;;;;24.50;70.72;97028.38;623809;225;65157;-67
2023/08/25 05:28:56;;;;;;;;;;;;;;;24.51;70.94;97033.48;625969;226;44324;-67
2023/08/25 05:31:24;;;;;;;;;;;;;;;24.51;71.01;97030.00;627973;226;65421;-68
2023/08/25 05:33:53;;;;;;;;;;;;;;;24.50;71.04;97031.89;625558;225;46247;-66
2023/08/25 05:36:28;;;;;;;;;;;;;;;24.51;71.03;97032.69;625618;226;43034;-67
2023/08/25 05:38:56;;;;;;;;;;;;;;;24.50;70.90;97037.27;627518;226;67098;-66
2023/08/25 05:41:24;;;;;;;;;;;;;;;24.50;70.93;97042.64;625138;226;66865;-67
2023/08/25 05:43:51;;;;;;;;;;;;;;;24.50;71.04;97045.33;626520;226;64930;-67
2023/08/25 05:46:19;;;;;;;;;;;;;;;24.50;71.11;97042.64;626309;226;64776;-67
2023/08/25 05:48:47;;;;;;;;;;;;;;;24.51;71.02;97043.43;626174;226;66674;-67
2023/08/25 05:51:14;;;;;;;;;;;;;;;24.51;71.10;97038.84;627249;226;64980;-67
2023/08/25 05:53:44;;;;;;;;;;;;;;;24.50;71.14;97034.58;626182;226;67168;-66
2023/08/25 05:56:11;;;;;;;;;;;;;;;24.51;71.15;97040.74;626674;226;66943;-67
2023/08/25 05:58:39;;;;;;;;;;;;;;;24.50;71.19;97031.89;625874;226;62738;-67
2023/08/25 06:01:06;;;;;;;;;;;;;;;24.50;71.22;97031.89;626808;226;65877;-67
2023/08/25 06:03:34;;;;;;;;;;;;;;;24.50;71.23;97039.95;626163;226;64599;-68
2023/08/25 06:06:02;;;;;;;;;;;;;;;24.51;71.28;97038.84;624575;226;62892;-68
2023/08/25 06:08:30;;;;;;;;;;;;;;;24.50;71.32;97037.27;624815;226;67124;-70
2023/08/25 06:10:58;;;;;;;;;;;;;;;24.50;71.35;97039.95;626627;226;67355;-70
2023/08/25 06:13:25;;;;;;;;;;;;;;;24.51;71.26;97044.22;626014;226;65051;-70
2023/08/25 06:15:53;;;;;;;;;;;;;;;24.50;69.93;97045.33;625971;226;66772;-68
2023/08/25 06:18:20;;;;;;;;;;;;;;;24.51;70.64;97041.53;626133;226;64646;-63
2023/08/25 06:20:50;;;;;;;;;;;;;;;24.52;70.13;97040.44;626858;226;64692;-63
2023/08/25 06:23:18;;;;;;;;;;;;;;;24.52;70.50;97043.12;625099;226;64769;-69
2023/08/25 06:25:45;;;;;;;;;;;;;;;24.52;70.45;97040.44;625993;226;64854;-68
2023/08/25 06:28:13;;;;;;;;;;;;;;;24.53;70.27;97030.51;627299;226;62740;-69
2023/08/25 06:30:41;;;;;;;;;;;;;;;24.53;70.20;97033.20;627084;226;66768;-70
2023/08/25 06:33:10;;;;;;;;;;;;;;;24.53;70.01;97025.93;625558;226;66947;-71
2023/08/25 06:35:41;;;;;;;;;;;;;;;24.53;70.07;97031.30;626078;226;62467;-70
2023/08/25 06:38:08;;;;;;;;;;;;;;;24.54;70.42;97032.09;625553;226;67371;-69
2023/08/25 06:40:36;;;;;;;;;;;;;;;24.54;70.34;97042.84;626872;226;64581;-70
2023/08/25 06:43:04;;;;;;;;;;;;;;;24.53;69.95;97035.88;626348;226;64823;-59
2023/08/25 06:45:31;;;;;;;;;;;;;;;24.55;69.77;97037.19;625815;226;67302;-68
2023/08/25 06:47:59;;;;;;;;;;;;;;;24.53;69.19;97036.67;624766;226;64645;-67
2023/08/25 06:50:27;;;;;;;;;;;;;;;24.55;69.48;97033.67;621644;227;62746;-68
2023/08/25 06:52:54;;;;;;;;;;;;;;;24.56;70.39;97030.71;620571;227;64834;-67
2023/08/25 06:55:25;;;;;;;;;;;;;;;24.54;70.17;97030.20;619595;229;66870;-69
2023/08/25 06:57:52;;;;;;;;;;;;;;;24.55;69.89;97039.88;619808;229;65404;-69
2023/08/25 07:00:21;;;;;;;;;;;;;;;24.56;70.16;97041.45;619882;229;67061;-72
2023/08/25 07:02:48;;;;;;;;;;;;;;;24.56;70.13;97040.66;619838;229;66981;-71
2023/08/25 07:05:16;;;;;;;;;;;;;;;24.56;70.03;97037.98;619813;229;65062;-70
2023/08/25 07:07:43;;;;;;;;;;;;;;;24.55;70.48;97037.19;619842;229;67024;-71
2023/08/25 07:10:15;;;;;;;;;;;;;;;24.55;70.53;97039.88;620623;228;63809;-69
2023/08/25 07:12:43;;;;;;;;;;;;;;;24.56;70.46;97036.08;621628;227;62715;-69
2023/08/25 07:15:11;;;;;;;;;;;;;;;24.56;70.53;97035.30;619850;229;67281;-69
2023/08/25 07:17:39;;;;;;;;;;;;;;;24.56;70.56;97036.08;619802;229;66796;-71
2023/08/25 07:20:08;;;;;;;;;;;;;;;24.55;70.20;97031.81;620087;228;63045;-68
2023/08/25 07:22:36;;;;;;;;;;;;;;;24.55;69.15;97034.50;621112;228;67239;-70
2023/08/25 07:25:04;;;;;;;;;;;;;;;24.54;68.61;97030.20;621085;228;67546;-69
2023/08/25 07:27:32;;;;;;;;;;;;;;;24.56;68.42;97030.71;620144;228;62731;-70
2023/08/25 07:29:59;;;;;;;;;;;;;;;24.57;68.46;97034.98;621591;227;65882;-70
2023/08/25 07:32:27;;;;;;;;;;;;;;;24.56;68.35;97040.66;621612;227;64821;-69
2023/08/25 07:34:55;;;;;;;;;;;;;;;24.58;68.29;97039.28;620408;228;65246;-70
2023/08/25 07:37:23;;;;;;;;;;;;;;;24.59;68.28;97035.50;622150;226;65084;-71
2023/08/25 07:39:51;;;;;;;;;;;;;;;24.59;67.47;97040.08;621189;228;64831;-71
2023/08/25 07:42:19;;;;;;;;;;;;;;;24.61;67.38;97031.70;621484;228;64890;-71
2023/08/25 07:44:48;;;;;;;;;;;;;;;24.61;67.38;97029.02;621482;228;64755;-70
2023/08/25 07:47:16;;;;;;;;;;;;;;;24.63;67.75;97034.91;621385;228;64931;-70
2023/08/25 07:49:44;;;;;;;;;;;;;;;24.64;70.53;97031.14;621397;228;62735;-65
2023/08/25 07:52:12;;;;;;;;;;;;;;;24.63;71.41;97033.01;621488;228;67946;-66
2023/08/25 07:54:39;;;;;;;;;;;;;;;24.63;71.98;97029.53;621498;228;66852;-67
2023/08/25 07:57:07;;;;;;;;;;;;;;;24.62;71.64;97025.26;621417;228;65182;-70
2023/08/25 07:59:35;;;;;;;;;;;;;;;24.64;68.71;97025.77;621403;228;64726;-70
2023/08/25 08:02:03;;;;;;;;;;;;;;;24.66;68.68;97028.94;621370;228;64919;-69
2023/08/25 08:04:31;;;;;;;;;;;;;;;24.66;67.99;97020.87;621500;228;62997;-69
2023/08/25 08:07:00;;;;;;;;;;;;;;;24.66;67.68;97032.41;620375;228;67260;-68
2023/08/25 08:09:28;;;;;;;;;;;;;;;24.67;67.67;97025.97;620883;228;67215;-69
2023/08/25 08:11:56;;;;;;;;;;;;;;;24.67;67.68;97031.34;619810;228;62687;-68
2023/08/25 08:14:24;;;;;;;;;;;;;;;24.67;67.66;97036.72;621254;228;64838;-68
2023/08/25 08:16:51;;;;;;;;;;;;;;;24.69;68.31;97033.72;621489;227;66855;-68
2023/08/25 08:19:19;;;;;;;;;;;;;;;24.70;70.98;97032.64;620041;228;64887;-69
2023/08/25 08:21:46;;;;;;;;;;;;;;;24.67;71.66;97022.48;619383;228;67086;-68
2023/08/25 08:24:14;;;;;;;;;;;;;;;24.68;71.81;97018.70;620560;227;64671;-68
2023/08/25 08:26:43;;;;;;;;;;;;;;;24.67;71.12;97022.48;620907;228;64927;-68
2023/08/25 08:29:11;;;;;;;;;;;;;;;24.68;71.34;97013.33;620461;228;67244;-67
2023/08/25 08:31:40;;;;;;;;;;;;;;;24.67;71.10;97017.91;621146;228;66512;-66
2023/08/25 08:34:07;;;;;;;;;;;;;;;24.67;70.53;97017.91;619622;227;64986;-65
2023/08/25 08:36:35;;;;;;;;;;;;;;;24.69;70.50;97009.53;620374;228;66757;-66
2023/08/25 08:39:04;;;;;;;;;;;;;;;24.69;69.21;97009.53;621341;228;66706;-68
2023/08/25 08:41:32;;;;;;;;;;;;;;;24.71;68.96;97007.36;620080;228;65140;-68
2023/08/25 08:44:03;;;;;;;;;;;;;;;24.71;70.16;97012.73;621440;228;64758;-68
2023/08/25 08:46:31;;;;;;;;;;;;;;;24.71;69.63;97004.67;621384;228;66687;-67
2023/08/25 08:48:59;;;;;;;;;;;;;;;24.71;68.29;96999.30;619720;228;62801;-68
2023/08/25 08:51:27;;;;;;;;;;;;;;;24.72;67.75;97001.70;619869;228;66917;-68
2023/08/25 08:53:55;;;;;;;;;;;;;;;24.73;67.83;97002.49;621318;228;64934;-68
2023/08/25 08:56:23;;;;;;;;;;;;;;;24.74;67.54;96998.70;622475;227;62891;-68
2023/08/25 08:58:50;;;;;;;;;;;;;;;24.74;67.50;97004.87;621277;227;66606;-69
2023/08/25 09:01:18;;;;;;;;;;;;;;;24.75;67.85;97003.80;621281;228;66808;-69
2023/08/25 09:03:47;;;;;;;;;;;;;;;24.76;67.67;96999.21;621356;228;64868;-70
2023/08/25 09:06:15;;;;;;;;;;;;;;;24.76;67.95;97000.00;620528;228;67024;-69
2023/08/25 09:08:43;;;;;;;;;;;;;;;24.76;67.94;96991.15;620876;228;66876;-69
2023/08/25 09:11:10;;;;;;;;;;;;;;;24.76;68.45;96991.94;621435;228;65111;-67
2023/08/25 09:13:38;;;;;;;;;;;;;;;24.75;68.39;96984.19;620425;228;64833;-69
2023/08/25 09:16:12;;;;;;;;;;;;;;;24.75;68.55;96974.23;619742;228;67264;-66
2023/08/25 09:18:40;;;;;;;;;;;;;;;24.76;68.34;96983.08;619151;228;65043;-69
2023/08/25 09:21:21;;;;;;;;;;;;;;;24.76;68.21;96975.02;618734;229;67188;-69
2023/08/25 09:23:54;;;;;;;;;;;;;;;24.79;67.93;96985.17;618857;229;66887;-68
2023/08/25 09:26:22;;;;;;;;;;;;;;;24.79;67.98;96969.84;618847;228;64854;-71
2023/08/25 09:28:50;;;;;;;;;;;;;;;24.79;68.05;96971.73;618826;229;67093;-68
2023/08/25 09:31:25;;;;;;;;;;;;;;;24.78;68.00;96967.47;619195;228;66958;-69
2023/08/25 09:33:54;;;;;;;;;;;;;;;24.77;67.89;96966.67;618802;229;62747;-65
2023/08/25 09:36:22;;;;;;;;;;;;;;;24.77;67.77;96966.67;618651;229;64849;-65
2023/08/25 09:38:49;;;;;;;;;;;;;;;24.78;67.76;96962.09;618864;229;64852;-67
2023/08/25 09:41:24;;;;;;;;;;;;;;;24.79;67.71;96958.30;618936;229;62412;-65
2023/08/25 09:43:53;;;;;;;;;;;;;;;24.78;67.63;96954.82;619925;226;67294;-63
2023/08/25 09:46:22;;;;;;;;;;;;;;;24.79;67.60;96952.92;623710;226;64293;-62
2023/08/25 09:48:49;;;;;;;;;;;;;;;24.80;67.60;96946.48;626465;224;62892;-62
2023/08/25 09:51:17;;;;;;;;;;;;;;;24.79;67.71;96942.97;624882;226;64800;-62
2023/08/25 09:53:46;;;;;;;;;;;;;;;24.79;67.73;96945.66;621106;226;65111;-63
2023/08/25 09:56:14;;;;;;;;;;;;;;;24.80;67.62;96941.89;619333;227;65021;-62
2023/08/25 09:58:42;;;;;;;;;;;;;;;24.81;67.56;96934.62;619517;228;64751;-62
2023/08/25 10:01:10;;;;;;;;;;;;;;;24.82;67.55;96933.52;621626;227;64839;-62
2023/08/25 10:03:38;;;;;;;;;;;;;;;24.83;67.52;96931.62;620765;227;62989;-62
2023/08/25 10:06:06;;;;;;;;;;;;;;;24.82;67.54;96930.83;623229;227;67139;-62
2023/08/25 10:08:34;;;;;;;;;;;;;;;24.83;67.45;96927.06;619005;229;66928;-62
2023/08/25 10:11:03;;;;;;;;;;;;;;;24.83;67.43;96919.00;619318;228;65120;-62
2023/08/25 10:13:30;;;;;;;;;;;;;;;24.84;67.50;96919.79;618775;229;64454;-64
2023/08/25 10:15:59;;;;;;;;;;;;;;;24.83;67.44;96921.69;618796;229;67066;-65
2023/08/25 10:18:28;;;;;;;;;;;;;;;24.85;67.44;96924.06;619166;228;62883;-64
2023/08/25 10:20:56;;;;;;;;;;;;;;;24.84;67.42;96922.48;618968;229;65268;-62
2023/08/25 10:23:26;;;;;;;;;;;;;;;24.85;67.36;96926.75;618940;229;64788;-64
2023/08/25 10:25:53;;;;;;;;;;;;;;;24.84;67.35;96920.58;619174;227;62704;-63
2023/08/25 10:28:22;;;;;;;;;;;;;;;24.84;67.48;96923.27;612491;229;70616;-64
2023/08/25 10:30:51;;;;;;;;;;;;;;;24.84;67.32;96917.10;618871;228;66999;-64
2023/08/25 10:33:19;;;;;;;;;;;;;;;24.85;67.41;96924.85;620791;227;64998;-63
2023/08/25 10:35:48;;;;;;;;;;;;;;;24.84;67.40;96912.52;618606;226;65076;-63
2023/08/25 10:38:22;;;;;;;;;;;;;;;24.85;67.37;96918.69;619762;229;67025;-63
2023/08/25 10:40:54;;;;;;;;;;;;;;;24.85;67.43;96914.09;619853;229;65119;-63
2023/08/25 10:43:34;;;;;;;;;;;;;;;24.85;67.53;96910.62;619690;229;67373;-65
2023/08/25 10:46:03;;;;;;;;;;;;;;;24.84;67.54;96904.45;619845;229;64927;-65
2023/08/25 10:48:31;;;;;;;;;;;;;;;24.85;67.48;96908.72;619913;229;65198;-64
2023/08/25 10:51:08;;;;;;;;;;;;;;;24.84;67.44;96904.45;617518;229;67343;-66
2023/08/25 10:53:40;;;;;;;;;;;;;;;24.84;67.38;96901.77;619725;228;67262;-63
2023/08/25 10:56:22;;;;;;;;;;;;;;;24.85;67.34;96900.66;619686;229;65775;-63
2023/08/25 10:58:58;;;;;;;;;;;;;;;24.85;67.28;96903.34;623149;226;65135;-64
2023/08/25 11:01:30;;;;;;;;;;;;;;;24.85;67.39;96895.28;622105;226;64548;-64
2023/08/25 11:04:14;;;;;;;;;;;;;;;24.85;67.50;96887.22;623596;226;62717;-63
2023/08/25 11:06:43;;;;;;;;;;;;;;;24.85;67.52;96891.80;627376;226;67224;-67
2023/08/25 11:09:12;;;;;;;;;;;;;;;24.85;67.51;96899.87;626139;226;67384;-65
2023/08/25 11:11:41;;;;;;;;;;;;;;;24.84;67.58;96896.39;626217;225;65246;-65
2023/08/25 11:14:08;;;;;;;;;;;;;;;24.85;67.62;96900.66;626129;226;65799;-61
2023/08/25 11:16:37;;;;;;;;;;;;;;;24.86;67.41;96883.45;626833;226;64802;-61
2023/08/25 11:19:05;;;;;;;;;;;;;;;24.92;67.18;96886.84;625702;226;62700;-61
2023/08/25 11:21:32;;;;;;;;;;;;;;;24.92;66.77;96882.25;627211;226;67248;-64
2023/08/25 11:24:00;;;;;;;;;;;;;;;24.94;66.86;96887.34;626139;226;64632;-63
2023/08/25 11:26:27;;;;;;;;;;;;;;;24.95;66.91;96889.72;626833;226;65041;-64
2023/08/25 11:28:55;;;;;;;;;;;;;;;24.96;66.96;96883.26;626681;226;64741;-64
2023/08/25 11:31:23;;;;;;;;;;;;;;;24.96;66.93;96885.95;627000;226;64803;-64
2023/08/25 11:33:51;;;;;;;;;;;;;;;24.97;66.98;96889.43;626031;226;62885;-61
2023/08/25 11:36:20;;;;;;;;;;;;;;;25.01;67.05;96879.66;626727;226;67420;-66
2023/08/25 11:38:49;;;;;;;;;;;;;;;25.01;66.94;96882.34;627677;226;67312;-65
2023/08/25 11:41:16;;;;;;;;;;;;;;;24.98;67.10;96883.73;622373;226;64874;-65
2023/08/25 11:43:48;;;;;;;;;;;;;;;24.96;67.29;96885.95;617653;227;64872;-67
2023/08/25 11:46:16;;;;;;;;;;;;;;;24.94;67.18;96874.69;618244;227;64814;-67
2023/08/25 11:48:45;;;;;;;;;;;;;;;24.93;67.07;96870.39;621276;226;65098;-66
2023/08/25 11:51:17;;;;;;;;;;;;;;;24.92;66.98;96871.50;624142;226;67045;-65
2023/08/25 11:53:45;;;;;;;;;;;;;;;24.93;66.89;96867.70;623477;225;67032;-66
2023/08/25 11:56:16;;;;;;;;;;;;;;;24.92;66.99;96868.02;623845;226;64943;-67
2023/08/25 11:58:45;;;;;;;;;;;;;;;24.93;67.08;96867.70;627382;226;67380;-66
2023/08/25 12:01:13;;;;;;;;;;;;;;;24.92;67.11;96879.56;626075;226;64770;-66
2023/08/25 12:03:44;;;;;;;;;;;;;;;24.92;67.04;96868.81;627165;226;64990;-66
2023/08/25 12:06:12;;;;;;;;;;;;;;;24.92;67.12;96868.81;623275;226;67361;-66
2023/08/25 12:08:41;;;;;;;;;;;;;;;24.92;67.06;96865.33;622040;226;67207;-67
2023/08/25 12:11:10;;;;;;;;;;;;;;;24.91;67.04;96859.17;620919;226;63785;-67
2023/08/25 12:13:39;;;;;;;;;;;;;;;24.93;67.11;96866.91;618494;228;67189;-67
2023/08/25 12:16:07;;;;;;;;;;;;;;;24.91;67.10;96855.66;620592;227;66663;-66
2023/08/25 12:18:35;;;;;;;;;;;;;;;24.91;67.02;96859.17;619055;229;64854;-66
2023/08/25 12:21:04;;;;;;;;;;;;;;;24.92;67.05;96858.06;619573;229;64828;-66
2023/08/25 12:23:36;;;;;;;;;;;;;;;24.92;67.04;96855.37;620694;228;67550;-67
2023/08/25 12:26:06;;;;;;;;;;;;;;;24.94;67.19;96860.46;619927;228;65457;-65
2023/08/25 12:28:34;;;;;;;;;;;;;;;24.91;67.21;96856.48;617902;228;65507;-66
2023/08/25 12:31:03;;;;;;;;;;;;;;;24.93;67.17;96858.84;616998;229;64886;-66
2023/08/25 12:33:31;;;;;;;;;;;;;;;24.93;67.17;96858.84;617725;229;64938;-66
2023/08/25 12:35:59;;;;;;;;;;;;;;;24.93;67.16;96850.78;619513;228;65113;-65
2023/08/25 12:38:27;;;;;;;;;;;;;;;24.94;67.10;96847.02;619557;228;64781;-65
2023/08/25 12:40:54;;;;;;;;;;;;;;;24.93;67.04;96850.78;619280;229;64878;-65
2023/08/25 12:43:23;;;;;;;;;;;;;;;24.93;67.10;96840.83;619801;228;66602;-66
2023/08/25 12:45:50;;;;;;;;;;;;;;;24.95;67.20;96835.16;619673;229;64601;-67
2023/08/25 12:48:18;;;;;;;;;;;;;;;24.93;67.12;96838.13;619294;229;62744;-66
2023/08/25 12:50:45;;;;;;;;;;;;;;;24.94;67.07;96833.58;619745;228;65358;-66
2023/08/25 12:53:13;;;;;;;;;;;;;;;24.94;66.99;96830.89;619812;228;65460;-65
2023/08/25 12:55:40;;;;;;;;;;;;;;;24.95;66.95;96837.84;619057;228;64853;-66